Time;durP1;ratioP1;P1;durP2;ratioP2;P2;SDS_P1;SDS_P2;PMS_P1;PMS_P2;Temp;Humidity;BMP_temperature;BMP_pressure;BME280_temperature;BME280_humidity;BME280_pressure;Samples;Min_cycle;Max_cycle;Signal;HPM_P1;HPM_P2
2021/06/14 00:02:05;;;;;;;5.43;2.20;;;14.60;73.70;;;;;;5074263;28;20051;-66
2021/06/14 00:04:31;;;;;;;3.60;2.50;;;14.60;73.80;;;;;;5074913;28;20059;-65
2021/06/14 00:06:57;;;;;;;4.72;2.53;;;14.60;74.20;;;;;;5071684;28;20440;-65
2021/06/14 00:09:24;;;;;;;5.32;3.10;;;14.50;74.70;;;;;;5072452;28;20059;-65
2021/06/14 00:11:53;;;;;;;3.90;2.35;;;14.50;74.60;;;;;;5074124;28;20032;-65
2021/06/14 00:14:19;;;;;;;3.13;2.00;;;14.40;74.80;;;;;;5072889;28;20469;-65
2021/06/14 00:16:46;;;;;;;6.38;2.40;;;14.30;75.60;;;;;;5074375;28;20039;-65
2021/06/14 00:19:12;;;;;;;3.20;2.05;;;14.30;76.30;;;;;;5073028;28;20107;-66
2021/06/14 00:21:38;;;;;;;3.90;2.33;;;14.20;76.60;;;;;;5074515;28;20110;-65
2021/06/14 00:24:05;;;;;;;4.40;2.30;;;14.20;76.90;;;;;;5073522;28;20028;-66
2021/06/14 00:26:31;;;;;;;3.88;2.40;;;14.20;77.20;;;;;;5073878;28;20082;-65
2021/06/14 00:28:56;;;;;;;6.32;3.05;;;14.10;77.20;;;;;;5065831;28;20438;-65
2021/06/14 00:31:23;;;;;;;3.00;2.15;;;14.20;77.50;;;;;;5072849;28;20445;-65
2021/06/14 00:33:49;;;;;;;7.07;2.58;;;14.20;77.90;;;;;;5073872;28;20484;-65
2021/06/14 00:36:15;;;;;;;4.47;2.70;;;14.20;78.00;;;;;;5072533;28;20033;-66
2021/06/14 00:38:40;;;;;;;4.65;2.58;;;14.10;77.80;;;;;;5066113;28;20028;-65
2021/06/14 00:41:08;;;;;;;5.32;2.70;;;14.20;77.90;;;;;;5067756;28;20039;-67
2021/06/14 00:43:35;;;;;;;5.63;2.70;;;14.20;77.90;;;;;;5072274;28;20043;-65
2021/06/14 00:46:01;;;;;;;4.65;2.55;;;14.20;78.20;;;;;;5073518;28;20030;-66
2021/06/14 00:48:27;;;;;;;4.63;2.90;;;14.10;78.50;;;;;;5072767;28;20032;-66
2021/06/14 00:51:05;;;;;;;5.45;2.78;;;14.10;79.00;;;;;;5073426;28;20423;-65
2021/06/14 00:53:42;;;;;;;4.15;3.00;;;14.10;79.20;;;;;;5073107;28;20044;-65
2021/06/14 00:56:13;;;;;;;5.10;2.75;;;14.10;79.80;;;;;;5072276;28;20103;-67
2021/06/14 00:58:40;;;;;;;5.65;2.45;;;14.10;79.90;;;;;;5073302;28;20037;-65
2021/06/14 01:01:07;;;;;;;5.13;2.53;;;14.00;80.20;;;;;;5073127;28;20465;-67
2021/06/14 01:03:33;;;;;;;4.68;2.40;;;14.00;81.00;;;;;;5073298;28;20532;-65
2021/06/14 01:06:01;;;;;;;5.28;2.42;;;13.90;81.20;;;;;;5073427;28;20109;-65
2021/06/14 01:08:29;;;;;;;2.42;2.17;;;13.90;81.20;;;;;;5065391;28;20102;-65
2021/06/14 01:10:56;;;;;;;5.55;2.45;;;13.90;81.40;;;;;;5072082;28;20111;-65
2021/06/14 01:13:46;;;;;;;6.13;2.55;;;13.90;81.20;;;;;;5072338;28;20086;-65
2021/06/14 01:16:42;;;;;;;6.15;2.72;;;13.80;81.20;;;;;;5068787;28;20059;-65
2021/06/14 01:19:39;;;;;;;4.90;2.47;;;13.80;81.70;;;;;;5072361;28;20029;-66
2021/06/14 01:22:44;;;;;;;5.00;2.40;;;13.70;82.60;;;;;;5072635;28;20047;-66
2021/06/14 01:25:32;;;;;;;5.85;2.55;;;13.70;83.20;;;;;;5023632;28;20036;-66
2021/06/14 01:27:59;;;;;;;4.03;2.78;;;13.70;83.50;;;;;;5072537;28;20454;-65
2021/06/14 01:30:30;;;;;;;4.10;2.47;;;13.60;83.90;;;;;;5071736;28;20406;-65
2021/06/14 01:32:55;;;;;;;7.20;2.45;;;13.60;84.70;;;;;;5072773;28;20025;-65
2021/06/14 01:35:47;;;;;;;5.78;2.90;;;13.60;84.80;;;;;;5071610;28;20028;-65
2021/06/14 01:38:13;;;;;;;6.65;2.78;;;13.50;84.40;;;;;;5063943;28;20119;-65
2021/06/14 01:40:39;;;;;;;5.22;2.53;;;13.50;84.70;;;;;;5072256;28;20389;-67
2021/06/14 01:43:08;;;;;;;5.60;2.80;;;13.50;85.00;;;;;;5072489;28;20036;-65
2021/06/14 01:45:39;;;;;;;4.07;2.58;;;13.40;85.50;;;;;;5072258;28;20068;-65
2021/06/14 01:48:06;;;;;;;6.20;3.03;;;13.40;85.60;;;;;;5072860;28;20097;-65
2021/06/14 01:50:33;;;;;;;5.78;2.83;;;13.40;85.80;;;;;;5071785;28;20035;-65
2021/06/14 01:52:59;;;;;;;4.47;2.22;;;13.40;86.10;;;;;;5071902;28;20147;-65
2021/06/14 01:55:25;;;;;;;5.03;2.40;;;13.40;86.50;;;;;;5070545;28;20039;-66
2021/06/14 01:57:52;;;;;;;3.90;2.30;;;13.40;86.40;;;;;;5071614;28;20067;-65
2021/06/14 02:00:20;;;;;;;3.67;2.30;;;13.40;86.50;;;;;;5071464;28;20033;-65
2021/06/14 02:02:48;;;;;;;3.85;2.50;;;13.30;87.20;;;;;;5071543;28;20043;-65
2021/06/14 02:05:15;;;;;;;3.95;2.35;;;13.30;88.10;;;;;;5070686;28;20032;-65
2021/06/14 02:07:42;;;;;;;3.55;2.67;;;13.30;88.20;;;;;;5063893;28;20025;-65
2021/06/14 02:10:09;;;;;;;5.70;2.92;;;13.30;88.30;;;;;;5071794;28;20082;-66
2021/06/14 02:12:42;;;;;;;5.55;2.78;;;13.30;88.90;;;;;;5071053;28;20071;-65
2021/06/14 02:15:09;;;;;;;5.15;2.55;;;13.20;88.40;;;;;;5071216;28;20033;-65
2021/06/14 02:17:38;;;;;;;4.05;2.35;;;13.20;88.10;;;;;;5071217;28;20052;-65
2021/06/14 02:20:07;;;;;;;6.03;2.83;;;13.20;88.20;;;;;;5072001;28;20029;-64
2021/06/14 02:22:34;;;;;;;6.85;3.03;;;13.10;88.50;;;;;;5070728;28;20037;-65
2021/06/14 02:24:59;;;;;;;4.25;2.30;;;13.10;89.20;;;;;;5071937;28;20025;-66
2021/06/14 02:27:25;;;;;;;3.05;2.33;;;13.10;89.80;;;;;;5070426;28;20100;-64
2021/06/14 02:29:51;;;;;;;2.95;2.10;;;13.00;90.00;;;;;;5071656;28;20454;-64
2021/06/14 02:32:17;;;;;;;4.18;2.58;;;13.00;90.20;;;;;;5070972;28;20480;-64
2021/06/14 02:34:46;;;;;;;4.88;2.65;;;13.00;90.50;;;;;;5071128;28;20029;-64
2021/06/14 02:37:13;;;;;;;6.38;2.75;;;12.90;90.40;;;;;;5070783;28;20029;-66
2021/06/14 02:39:40;;;;;;;4.40;2.63;;;12.90;90.50;;;;;;5071346;28;20028;-65
2021/06/14 02:42:07;;;;;;;5.30;2.45;;;12.90;90.40;;;;;;5070289;28;20037;-65
2021/06/14 02:44:33;;;;;;;5.28;2.42;;;12.90;90.70;;;;;;5070870;28;20025;-64
2021/06/14 02:47:10;;;;;;;4.13;2.40;;;12.90;91.00;;;;;;5071085;28;20028;-65
2021/06/14 02:49:36;;;;;;;6.80;2.53;;;12.90;91.40;;;;;;5064245;28;20028;-64
2021/06/14 02:52:06;;;;;;;6.20;3.10;;;12.80;91.60;;;;;;5070936;28;20036;-65
2021/06/14 02:54:38;;;;;;;5.40;2.87;;;12.80;92.10;;;;;;5070528;28;20063;-64
2021/06/14 02:57:09;;;;;;;7.15;2.95;;;12.70;92.10;;;;;;5071236;28;20696;-64
2021/06/14 02:59:35;;;;;;;5.57;2.90;;;12.70;92.50;;;;;;5063358;28;20021;-64
2021/06/14 03:02:01;;;;;;;4.68;2.63;;;;;;;;;;5071078;28;20082;-65
2021/06/14 03:04:27;;;;;;;4.85;3.00;;;12.60;92.30;;;;;;5070092;28;20433;-65
2021/06/14 03:06:53;;;;;;;3.88;2.95;;;12.60;92.60;;;;;;5075595;28;20056;-65
2021/06/14 03:09:21;;;;;;;4.97;2.85;;;12.60;92.90;;;;;;5076681;28;20108;-65
2021/06/14 03:11:48;;;;;;;6.20;3.60;;;12.60;93.40;;;;;;5077867;28;20089;-65
2021/06/14 03:14:16;;;;;;;4.65;2.70;;;12.60;93.50;;;;;;5076519;28;20086;-65
2021/06/14 03:16:44;;;;;;;4.70;2.70;;;12.50;93.50;;;;;;5077844;28;20470;-65
2021/06/14 03:19:11;;;;;;;4.18;2.92;;;12.50;93.60;;;;;;5077605;28;20025;-66
2021/06/14 03:21:38;;;;;;;6.40;3.00;;;12.50;93.70;;;;;;5077180;28;20048;-65
2021/06/14 03:24:04;;;;;;;8.15;2.90;;;12.50;93.90;;;;;;5077878;28;20074;-65
2021/06/14 03:26:38;;;;;;;5.82;2.67;;;12.50;93.90;;;;;;5076657;28;20027;-65
2021/06/14 03:29:06;;;;;;;5.78;3.38;;;12.50;93.90;;;;;;5077348;28;20036;-65
2021/06/14 03:31:32;;;;;;;9.73;3.65;;;12.50;94.10;;;;;;5076584;28;20056;-65
2021/06/14 03:33:59;;;;;;;4.40;2.80;;;12.50;94.10;;;;;;5077711;28;20480;-65
2021/06/14 03:36:31;;;;;;;4.63;2.88;;;12.50;94.10;;;;;;5076766;28;20032;-65
2021/06/14 03:38:58;;;;;;;4.80;3.28;;;12.50;94.40;;;;;;5077374;28;20503;-65
2021/06/14 03:41:24;;;;;;;4.15;2.92;;;12.50;94.70;;;;;;5076425;28;20059;-65
2021/06/14 03:43:50;;;;;;;7.38;3.20;;;12.50;94.70;;;;;;5077437;28;20028;-65
2021/06/14 03:46:16;;;;;;;4.63;2.80;;;12.50;94.90;;;;;;5076615;28;20036;-65
2021/06/14 03:48:42;;;;;;;4.57;3.10;;;12.50;95.00;;;;;;5077521;28;20373;-65
2021/06/14 03:51:08;;;;;;;4.13;2.80;;;12.50;95.40;;;;;;5077445;28;20047;-65
2021/06/14 03:53:35;;;;;;;5.72;3.47;;;12.50;95.40;;;;;;5078429;28;20063;-65
2021/06/14 03:56:07;;;;;;;4.35;2.72;;;12.50;95.30;;;;;;5077488;28;20040;-65
2021/06/14 03:58:33;;;;;;;3.03;2.67;;;12.60;95.30;;;;;;5076289;28;20603;-65
2021/06/14 04:00:59;;;;;;;5.72;3.35;;;12.60;95.30;;;;;;5077333;28;20036;-65
2021/06/14 04:03:27;;;;;;;6.00;3.17;;;12.60;95.40;;;;;;5076209;28;20040;-65
2021/06/14 04:05:59;;;;;;;5.50;3.22;;;12.60;95.40;;;;;;5059178;28;20028;-65
2021/06/14 04:08:25;;;;;;;5.60;3.60;;;12.60;95.20;;;;;;5076276;28;20034;-65
2021/06/14 04:10:51;;;;;;;4.75;3.05;;;12.70;95.00;;;;;;5076912;28;20093;-65
2021/06/14 04:13:16;;;;;;;8.25;3.28;;;12.70;95.00;;;;;;5076260;28;20513;-66
2021/06/14 04:15:42;;;;;;;5.90;3.58;;;12.70;95.50;;;;;;5076835;28;20039;-65
2021/06/14 04:18:08;;;;;;;5.13;3.55;;;12.80;95.90;;;;;;5074274;28;20020;-65
2021/06/14 04:20:33;;;;;;;6.03;3.08;;;12.80;96.30;;;;;;5073198;28;20029;-65
2021/06/14 04:22:59;;;;;;;4.28;3.58;;;12.80;96.50;;;;;;5073625;28;20128;-65
2021/06/14 04:25:25;;;;;;;6.05;3.53;;;12.80;96.90;;;;;;5073160;28;20016;-65
2021/06/14 04:27:50;;;;;;;5.50;3.83;;;12.80;97.00;;;;;;5073073;28;20530;-65
2021/06/14 04:30:17;;;;;;;7.88;4.20;;;12.90;98.00;;;;;;5073023;28;20495;-65
2021/06/14 04:32:44;;;;;;;6.38;4.15;;;12.90;98.00;;;;;;5073494;28;20028;-65
2021/06/14 04:35:11;;;;;;;4.60;3.90;;;13.00;98.10;;;;;;5073644;28;20039;-65
2021/06/14 04:37:37;;;;;;;7.55;4.47;;;13.10;98.60;;;;;;5061978;28;20056;-65
2021/06/14 04:40:07;;;;;;;6.78;4.97;;;13.10;98.80;;;;;;5073291;28;20466;-65
2021/06/14 04:42:35;;;;;;;6.15;4.43;;;13.20;99.10;;;;;;5064350;28;20028;-65
2021/06/14 04:45:01;;;;;;;7.45;4.40;;;13.30;98.70;;;;;;5072491;28;20071;-65
2021/06/14 04:47:26;;;;;;;6.47;4.50;;;13.40;98.50;;;;;;5072637;28;20055;-65
2021/06/14 04:49:52;;;;;;;7.40;4.90;;;13.50;98.20;;;;;;5073421;28;20036;-66
2021/06/14 04:52:18;;;;;;;7.40;4.68;;;13.60;98.20;;;;;;5072254;28;20115;-66
2021/06/14 04:54:44;;;;;;;5.43;4.18;;;13.70;97.70;;;;;;5073203;28;20412;-66
2021/06/14 04:57:10;;;;;;;6.25;4.57;;;13.70;97.50;;;;;;5073082;28;20025;-66
2021/06/14 04:59:35;;;;;;;9.05;4.53;;;13.80;97.60;;;;;;5072192;28;20016;-65
2021/06/14 05:02:02;;;;;;;9.95;5.60;;;14.00;97.50;;;;;;5072984;28;20465;-66
2021/06/14 05:04:27;;;;;;;7.32;4.65;;;14.00;97.20;;;;;;5071801;28;20029;-65
2021/06/14 05:06:53;;;;;;;4.78;3.95;;;14.10;97.00;;;;;;5070919;28;20552;-66
2021/06/14 05:09:19;;;;;;;6.20;4.22;;;14.20;96.90;;;;;;5054187;28;20040;-69
2021/06/14 05:11:47;;;;;;;10.00;5.20;;;14.30;96.50;;;;;;5072820;28;20024;-71
2021/06/14 05:14:15;;;;;;;6.90;4.50;;;14.40;95.90;;;;;;5072418;28;20477;-71
2021/06/14 05:16:41;;;;;;;8.55;4.40;;;14.50;95.50;;;;;;5072476;28;20021;-71
2021/06/14 05:19:06;;;;;;;7.00;3.88;;;14.70;93.30;;;;;;5072127;28;20032;-72
2021/06/14 05:21:32;;;;;;;6.05;4.35;;;14.80;92.70;;;;;;5072130;28;20055;-66
2021/06/14 05:23:58;;;;;;;6.32;4.07;;;14.90;93.00;;;;;;5073028;28;20029;-68
2021/06/14 05:26:23;;;;;;;5.10;3.88;;;15.00;92.20;;;;;;5071850;28;20021;-68
2021/06/14 05:28:49;;;;;;;9.40;5.30;;;15.10;91.70;;;;;;5072018;28;20474;-68
2021/06/14 05:31:15;;;;;;;5.57;4.40;;;15.30;91.90;;;;;;5071840;28;20036;-68
2021/06/14 05:33:40;;;;;;;10.27;4.78;;;15.40;91.50;;;;;;5072325;28;20020;-66
2021/06/14 05:36:06;;;;;;;11.30;6.00;;;15.50;92.00;;;;;;5072029;28;20090;-66
2021/06/14 05:38:32;;;;;;;11.18;6.57;;;15.70;91.50;;;;;;5072091;28;20024;-69
2021/06/14 05:40:58;;;;;;;14.30;6.60;;;15.80;90.40;;;;;;5072766;28;20078;-66
2021/06/14 05:43:23;;;;;;;10.45;5.93;;;15.90;89.40;;;;;;5068526;28;20039;-65
2021/06/14 05:45:49;;;;;;;12.25;6.93;;;15.90;89.20;;;;;;5072209;28;20047;-66
2021/06/14 05:48:15;;;;;;;18.38;7.30;;;16.00;89.70;;;;;;5071493;28;20025;-67
2021/06/14 05:50:41;;;;;;;10.73;6.75;;;16.00;88.20;;;;;;5071909;28;20029;-65
2021/06/14 05:53:06;;;;;;;12.32;5.57;;;16.10;87.00;;;;;;5072075;28;20497;-65
2021/06/14 05:55:33;;;;;;;7.90;5.10;;;16.10;86.50;;;;;;5071396;28;20069;-66
2021/06/14 05:57:59;;;;;;;8.10;5.05;;;16.20;85.90;;;;;;5072621;28;20103;-65
2021/06/14 06:00:25;;;;;;;13.18;5.72;;;16.30;85.30;;;;;;5070983;28;20036;-67
2021/06/14 06:02:51;;;;;;;13.63;5.50;;;16.50;83.90;;;;;;5071178;28;20036;-66
2021/06/14 06:05:17;;;;;;;9.63;5.47;;;16.70;82.10;;;;;;5070889;28;20081;-67
2021/06/14 06:07:42;;;;;;;16.02;7.25;;;16.80;80.90;;;;;;5069829;28;20024;-66
2021/06/14 06:10:10;;;;;;;11.52;5.32;;;16.90;80.40;;;;;;5071789;28;20035;-66
2021/06/14 06:12:37;;;;;;;7.25;3.88;;;17.00;79.80;;;;;;5070947;28;20032;-66
2021/06/14 06:15:11;;;;;;;15.90;3.55;;;17.10;77.20;;;;;;5048082;28;20033;-66
2021/06/14 06:17:36;;;;;;;10.63;3.30;;;17.20;73.90;;;;;;5054534;28;20028;-66
2021/06/14 06:20:08;;;;;;;6.90;3.65;;;17.40;74.40;;;;;;5063724;28;20028;-67
2021/06/14 06:22:35;;;;;;;6.22;3.47;;;17.60;74.30;;;;;;5070639;28;20037;-66
2021/06/14 06:25:11;;;;;;;11.00;4.10;;;17.70;73.00;;;;;;5069084;28;20040;-67
2021/06/14 06:27:37;;;;;;;5.55;3.45;;;17.80;70.60;;;;;;5070319;28;20086;-66
2021/06/14 06:30:05;;;;;;;8.48;3.67;;;18.00;70.60;;;;;;5071399;28;20424;-67
2021/06/14 06:32:31;;;;;;;5.78;3.33;;;18.10;70.30;;;;;;5070394;28;20093;-67
2021/06/14 06:34:56;;;;;;;9.23;3.00;;;18.20;69.30;;;;;;5070533;28;20032;-67
2021/06/14 06:37:22;;;;;;;5.18;3.05;;;18.40;68.00;;;;;;5070195;28;20048;-66
2021/06/14 06:39:48;;;;;;;7.93;3.10;;;18.50;67.50;;;;;;5070988;28;20036;-67
2021/06/14 06:42:13;;;;;;;6.65;3.33;;;18.60;67.10;;;;;;5070446;28;20081;-66
2021/06/14 06:44:39;;;;;;;6.47;3.08;;;18.80;66.50;;;;;;5055014;28;20017;-66
2021/06/14 06:47:05;;;;;;;7.57;3.13;;;18.90;66.30;;;;;;5070156;28;20025;-66
2021/06/14 06:49:32;;;;;;;6.13;3.33;;;19.00;64.90;;;;;;5066359;28;20028;-66
2021/06/14 06:51:59;;;;;;;7.47;3.08;;;19.10;64.30;;;;;;5070741;28;20186;-66
2021/06/14 06:54:25;;;;;;;5.63;2.63;;;19.10;63.80;;;;;;5070462;28;20370;-66
2021/06/14 06:56:53;;;;;;;7.10;2.70;;;19.20;63.40;;;;;;5070581;28;20028;-66
2021/06/14 06:59:20;;;;;;;6.88;3.22;;;19.30;63.40;;;;;;5067214;28;20031;-66
2021/06/14 07:01:46;;;;;;;7.10;2.97;;;19.50;62.90;;;;;;5067631;28;20120;-66
2021/06/14 07:04:12;;;;;;;5.82;2.90;;;19.60;62.60;;;;;;5069586;28;20523;-66
2021/06/14 07:06:38;;;;;;;5.13;2.70;;;19.60;61.70;;;;;;5066514;28;20036;-66
2021/06/14 07:09:04;;;;;;;8.18;2.83;;;19.70;61.80;;;;;;5071100;28;20381;-66
2021/06/14 07:11:31;;;;;;;13.60;2.85;;;19.80;61.10;;;;;;5070251;28;20047;-66
2021/06/14 07:13:57;;;;;;;6.32;2.33;;;19.90;61.10;;;;;;5070751;28;20039;-66
2021/06/14 07:16:24;;;;;;;5.18;2.95;;;19.90;59.90;;;;;;5069672;28;20032;-66
2021/06/14 07:18:50;;;;;;;6.55;2.50;;;20.10;59.70;;;;;;5071034;28;20436;-66
2021/06/14 07:21:17;;;;;;;5.68;2.55;;;20.20;59.40;;;;;;5070330;28;20512;-66
2021/06/14 07:23:43;;;;;;;6.57;2.97;;;20.30;59.60;;;;;;5069183;28;20037;-66
2021/06/14 07:26:09;;;;;;;6.00;3.25;;;20.40;58.30;;;;;;5070687;28;20024;-66
2021/06/14 07:28:34;;;;;;;4.05;2.42;;;20.50;58.60;;;;;;5070065;28;20392;-66
2021/06/14 07:31:05;;;;;;;8.23;2.72;;;20.60;58.80;;;;;;5061516;28;21307;-66
2021/06/14 07:33:31;;;;;;;;;;;20.70;57.80;;;;;;5065112;28;20063;-66
2021/06/14 07:35:57;;;;;;;9.68;3.05;;;20.80;57.10;;;;;;5065273;28;19920;-66
2021/06/14 07:38:23;;;;;;;3.42;2.20;;;20.90;57.00;;;;;;5070835;28;20025;-66
2021/06/14 07:40:50;;;;;;;6.20;2.60;;;20.90;57.30;;;;;;5071053;28;20162;-65
2021/06/14 07:43:16;;;;;;;6.65;2.72;;;20.90;56.90;;;;;;5070742;28;20032;-65
2021/06/14 07:45:44;;;;;;;6.18;2.58;;;21.00;56.30;;;;;;5062209;28;20670;-64
2021/06/14 07:48:10;;;;;;;6.88;2.65;;;21.00;56.90;;;;;;5071314;28;20024;-64
2021/06/14 07:50:37;;;;;;;7.82;3.05;;;21.10;57.80;;;;;;5069659;28;20028;-64
2021/06/14 07:53:03;;;;;;;6.95;2.47;;;21.20;56.60;;;;;;5070615;28;20059;-64
2021/06/14 07:55:30;;;;;;;9.02;2.55;;;21.20;56.30;;;;;;5073586;28;20033;-64
2021/06/14 07:57:56;;;;;;;5.78;2.42;;;21.30;56.30;;;;;;5074463;28;20028;-64
2021/06/14 08:00:22;;;;;;;3.70;2.22;;;21.30;56.60;;;;;;5068916;28;20025;-66
2021/06/14 08:02:48;;;;;;;8.32;2.65;;;21.40;55.60;;;;;;5073674;28;20495;-64
2021/06/14 08:05:14;;;;;;;7.47;2.85;;;21.60;55.30;;;;;;5073638;28;20032;-65
2021/06/14 08:07:40;;;;;;;7.70;3.17;;;21.70;54.50;;;;;;5073533;28;20644;-64
2021/06/14 08:10:10;;;;;;;8.18;2.70;;;21.70;54.80;;;;;;5074123;28;20090;-65
2021/06/14 08:12:42;;;;;;;4.90;2.70;;;21.70;54.60;;;;;;5073297;28;20432;-64
2021/06/14 08:15:08;;;;;;;5.55;2.63;;;21.80;54.80;;;;;;5074086;28;20086;-65
2021/06/14 08:17:34;;;;;;;8.38;2.72;;;21.90;54.20;;;;;;5072996;28;20028;-64
2021/06/14 08:20:07;;;;;;;5.03;2.90;;;22.00;53.30;;;;;;5073576;28;20082;-64
2021/06/14 08:25:06;;;;;;;7.10;2.22;;;22.20;53.40;;;;;;5073658;28;20036;-65
2021/06/14 08:27:38;;;;;;;8.40;2.63;;;22.30;52.90;;;;;;5072956;28;20071;-64
2021/06/14 08:30:07;;;;;;;5.28;2.30;;;22.30;52.30;;;;;;5066649;28;20059;-64
2021/06/14 08:32:34;;;;;;;3.63;2.58;;;22.40;52.40;;;;;;5064720;28;20473;-64
2021/06/14 08:35:00;;;;;;;6.10;2.60;;;22.50;51.30;;;;;;5073160;28;20027;-64
2021/06/14 08:37:26;;;;;;;6.05;2.70;;;22.70;51.00;;;;;;5064720;28;20050;-65
2021/06/14 08:39:51;;;;;;;10.05;2.42;;;22.90;51.20;;;;;;5073494;28;20031;-64
2021/06/14 08:42:17;;;;;;;6.88;2.95;;;23.00;51.30;;;;;;5072600;28;20040;-64
2021/06/14 08:44:43;;;;;;;10.35;2.60;;;23.10;51.10;;;;;;5073162;28;20048;-64
2021/06/14 08:47:10;;;;;;;7.47;2.92;;;23.20;50.90;;;;;;5073555;28;20056;-65
2021/06/14 08:49:36;;;;;;;9.77;2.67;;;23.20;51.10;;;;;;5072743;28;20469;-65
2021/06/14 08:52:03;;;;;;;5.35;2.22;;;23.30;50.80;;;;;;5073608;28;20177;-64
2021/06/14 08:54:29;;;;;;;10.15;2.63;;;23.40;50.40;;;;;;5063700;28;20037;-65
2021/06/14 08:56:55;;;;;;;7.10;2.40;;;23.40;49.40;;;;;;5073224;28;20490;-64
2021/06/14 08:59:22;;;;;;;9.00;2.35;;;23.60;48.60;;;;;;5071739;28;20389;-64
2021/06/14 09:01:47;;;;;;;5.78;2.40;;;23.60;48.50;;;;;;5070875;28;20473;-64
2021/06/14 09:04:13;;;;;;;11.52;2.80;;;23.60;48.60;;;;;;5072268;28;20033;-64
2021/06/14 09:06:39;;;;;;;9.60;2.58;;;23.70;49.60;;;;;;5071491;28;20036;-64
2021/06/14 09:09:07;;;;;;;4.82;2.50;;;23.80;49.60;;;;;;5067341;28;20021;-64
2021/06/14 09:11:39;;;;;;;7.38;2.90;;;23.90;49.40;;;;;;5072120;28;20389;-64
2021/06/14 09:14:19;;;;;;;4.90;2.55;;;23.90;49.40;;;;;;5073007;28;20037;-64
2021/06/14 09:16:46;;;;;;;12.05;2.80;;;23.90;49.60;;;;;;5071481;28;20020;-64
2021/06/14 09:19:35;;;;;;;8.98;2.72;;;24.10;50.10;;;;;;5071993;28;20371;-64
2021/06/14 09:22:19;;;;;;;5.45;2.40;;;24.20;50.30;;;;;;5072609;28;20051;-64
2021/06/14 09:24:53;;;;;;;5.47;2.50;;;24.30;49.20;;;;;;5069808;28;20021;-64
2021/06/14 09:27:39;;;;;;;4.95;2.65;;;24.30;48.60;;;;;;5071403;28;20028;-64
2021/06/14 09:30:12;;;;;;;6.60;2.45;;;24.50;48.80;;;;;;5049592;28;20082;-65
2021/06/14 09:33:00;;;;;;;8.32;2.47;;;24.60;47.80;;;;;;5070832;28;20108;-65
2021/06/14 09:35:37;;;;;;;7.57;2.40;;;24.70;47.40;;;;;;5071441;28;20021;-66
2021/06/14 09:38:05;;;;;;;6.32;2.50;;;24.80;48.20;;;;;;5072566;28;20037;-65
2021/06/14 09:40:44;;;;;;;5.53;2.20;;;24.90;47.60;;;;;;5071526;28;20028;-65
2021/06/14 09:43:31;;;;;;;6.65;2.63;;;25.00;47.70;;;;;;5064525;28;20074;-65
2021/06/14 09:45:59;;;;;;;6.72;2.38;;;25.10;46.00;;;;;;5072126;28;20413;-65
2021/06/14 09:48:28;;;;;;;37.60;4.18;;;25.10;46.20;;;;;;5054688;28;20025;-66
2021/06/14 09:50:57;;;;;;;4.43;2.20;;;25.10;45.50;;;;;;5071625;28;20486;-65
2021/06/14 09:53:26;;;;;;;5.78;2.35;;;25.30;46.70;;;;;;5065703;28;20084;-65
2021/06/14 09:55:52;;;;;;;12.82;2.67;;;25.30;45.60;;;;;;5071851;28;20032;-65
2021/06/14 09:58:24;;;;;;;4.07;2.53;;;25.30;45.10;;;;;;5070581;28;20107;-65
2021/06/14 10:00:58;;;;;;;3.03;2.10;;;25.30;45.20;;;;;;5066109;28;20058;-65
2021/06/14 10:03:39;;;;;;;5.80;2.10;;;25.20;45.20;;;;;;5064079;28;20036;-64
2021/06/14 10:06:05;;;;;;;4.53;2.13;;;25.30;45.80;;;;;;5071762;28;20424;-65
2021/06/14 10:08:32;;;;;;;5.75;2.45;;;25.30;45.70;;;;;;5047055;28;20028;-65
2021/06/14 10:11:08;;;;;;;9.30;2.38;;;25.30;45.10;;;;;;5070156;28;20060;-65
2021/06/14 10:13:37;;;;;;;7.57;2.65;;;25.40;45.80;;;;;;5070950;28;20028;-65
2021/06/14 10:16:07;;;;;;;3.88;2.15;;;25.50;44.60;;;;;;5070849;28;20017;-65
2021/06/14 10:18:36;;;;;;;6.35;2.47;;;25.70;44.30;;;;;;5070748;28;20029;-65
2021/06/14 10:21:04;;;;;;;6.75;2.50;;;25.70;43.90;;;;;;5064051;28;20041;-65
2021/06/14 10:23:30;;;;;;;4.05;2.38;;;25.80;44.00;;;;;;5065335;28;20033;-65
2021/06/14 10:25:57;;;;;;;3.88;2.10;;;25.80;44.00;;;;;;5072123;28;20041;-65
2021/06/14 10:28:24;;;;;;;4.13;1.90;;;25.80;44.40;;;;;;5071677;28;20036;-65
2021/06/14 10:30:51;;;;;;;5.10;2.47;;;25.90;44.30;;;;;;5070034;28;20174;-64
2021/06/14 10:33:23;;;;;;;4.75;2.22;;;26.00;43.20;;;;;;5070845;28;20481;-65
2021/06/14 10:38:46;;;;;;;5.65;2.50;;;26.20;42.50;;;;;;5070055;28;20117;-68
2021/06/14 10:41:12;;;;;;;4.83;2.30;;;26.30;42.70;;;;;;5070691;28;20111;-67
2021/06/14 10:43:39;;;;;;;3.53;2.15;;;26.30;42.20;;;;;;5070039;28;20479;-67
2021/06/14 10:46:10;;;;;;;5.68;2.20;;;26.40;41.90;;;;;;5071035;28;20063;-80
2021/06/14 10:48:36;;;;;;;4.88;2.03;;;26.50;42.10;;;;;;5070051;28;20032;-74
2021/06/14 10:51:11;;;;;;;6.18;2.40;;;26.50;41.80;;;;;;5071004;28;20036;-68
2021/06/14 10:53:36;;;;;;;4.65;2.22;;;26.60;42.60;;;;;;5068356;28;20071;-68
2021/06/14 10:56:02;;;;;;;6.38;2.25;;;26.60;41.20;;;;;;5052873;28;20105;-68
2021/06/14 10:58:30;;;;;;;3.38;2.00;;;26.50;40.60;;;;;;5061742;28;20032;-69
2021/06/14 11:01:15;;;;;;;9.13;2.35;;;26.40;41.00;;;;;;5065761;28;20025;-68
2021/06/14 11:03:44;;;;;;;5.35;2.42;;;26.60;41.40;;;;;;5062107;28;20040;-68
2021/06/14 11:06:17;;;;;;;4.35;2.17;;;26.70;41.30;;;;;;5070832;28;20134;-68
2021/06/14 11:08:44;;;;;;;7.07;2.25;;;26.90;41.00;;;;;;5067281;28;20129;-68
2021/06/14 11:11:11;;;;;;;8.65;2.28;;;27.10;40.10;;;;;;5070635;28;20036;-68
2021/06/14 11:13:48;;;;;;;4.15;2.50;;;27.20;39.40;;;;;;5069671;28;20044;-68
2021/06/14 11:16:14;;;;;;;10.43;2.72;;;27.20;41.80;;;;;;5068966;28;20028;-68
2021/06/14 11:18:40;;;;;;;4.68;2.17;;;27.20;40.60;;;;;;5069805;28;20031;-68
2021/06/14 11:21:21;;;;;;;3.85;2.10;;;27.20;40.90;;;;;;5070795;28;20037;-68
2021/06/14 11:23:49;;;;;;;2.80;2.00;;;27.30;38.50;;;;;;5069369;28;20040;-68
2021/06/14 11:26:35;;;;;;;4.75;2.15;;;27.30;39.20;;;;;;5070965;28;20078;-68
2021/06/14 11:29:14;;;;;;;4.95;2.00;;;27.50;37.90;;;;;;5074455;28;20040;-68
2021/06/14 11:31:41;;;;;;;3.65;2.28;;;27.60;37.40;;;;;;5072577;28;20031;-68
2021/06/14 11:34:17;;;;;;;5.75;2.15;;;27.70;38.70;;;;;;5074229;28;20416;-68
2021/06/14 11:36:58;;;;;;;5.72;2.13;;;27.80;38.60;;;;;;5074008;28;20039;-68
2021/06/14 11:39:26;;;;;;;8.55;2.15;;;27.70;38.30;;;;;;5067779;28;20025;-69
2021/06/14 11:41:53;;;;;;;3.38;2.05;;;27.70;39.00;;;;;;5069912;28;20025;-69
2021/06/14 11:44:31;;;;;;;2.75;2.03;;;27.70;39.10;;;;;;5073588;28;20044;-68
2021/06/14 11:47:14;;;;;;;4.80;2.22;;;27.90;37.90;;;;;;5074314;28;20074;-68
2021/06/14 11:49:43;;;;;;;5.63;2.10;;;28.00;39.50;;;;;;5072475;28;20024;-68
2021/06/14 11:52:22;;;;;;;3.53;2.08;;;28.20;40.10;;;;;;5065065;28;20492;-68
2021/06/14 11:55:00;;;;;;;2.35;1.67;;;28.40;39.00;;;;;;5070381;28;20094;-68
2021/06/14 11:57:28;;;;;;;6.28;2.03;;;28.80;38.30;;;;;;5073759;28;20024;-69
2021/06/14 11:59:54;;;;;;;7.55;1.85;;;28.90;37.20;;;;;;5066972;28;20032;-68
2021/06/14 12:02:26;;;;;;;4.40;1.73;;;29.00;37.10;;;;;;5072913;28;20036;-68
2021/06/14 12:05:01;;;;;;;2.50;1.90;;;29.00;37.40;;;;;;5072744;28;20028;-68
2021/06/14 12:07:41;;;;;;;5.32;1.92;;;29.00;36.90;;;;;;5067490;28;20164;-68
2021/06/14 12:10:13;;;;;;;4.50;1.95;;;29.00;37.70;;;;;;5072570;28;20032;-68
2021/06/14 12:12:41;;;;;;;3.10;1.95;;;29.20;37.20;;;;;;5072654;28;20029;-68
2021/06/14 12:15:11;;;;;;;4.72;2.15;;;29.30;38.00;;;;;;5073412;28;20477;-67
2021/06/14 12:17:38;;;;;;;;;;;29.40;37.40;;;;;;5073255;28;20300;-68
2021/06/14 12:20:08;;;;;;;4.20;1.70;;;29.40;38.00;;;;;;5073332;28;19916;-68
2021/06/14 12:22:34;;;;;;;3.75;1.73;;;29.60;37.20;;;;;;5073149;28;20037;-69
2021/06/14 12:25:07;;;;;;;2.55;1.80;;;29.60;36.10;;;;;;5055211;28;20024;-68
2021/06/14 12:27:33;;;;;;;5.05;1.85;;;29.70;36.40;;;;;;5073284;28;20553;-68
2021/06/14 12:30:01;;;;;;;5.03;1.77;;;29.80;36.50;;;;;;5071886;28;20124;-68
2021/06/14 12:32:29;;;;;;;2.67;2.20;;;29.80;35.10;;;;;;5073415;28;20032;-67
2021/06/14 12:35:03;;;;;;;4.93;2.22;;;29.80;35.30;;;;;;5072732;28;20149;-67
2021/06/14 12:37:29;;;;;;;2.90;1.92;;;29.80;36.20;;;;;;5072744;28;20386;-67
2021/06/14 12:40:13;;;;;;;2.83;2.13;;;29.70;36.00;;;;;;5071281;28;20028;-68
2021/06/14 12:42:40;;;;;;;5.20;1.85;;;29.70;36.10;;;;;;5072465;28;20055;-68
2021/06/14 12:45:11;;;;;;;2.30;2.00;;;29.70;36.00;;;;;;5073039;28;20054;-68
2021/06/14 12:47:49;;;;;;;4.53;2.33;;;29.80;36.10;;;;;;5072280;28;20020;-69
2021/06/14 12:50:23;;;;;;;5.55;1.88;;;29.90;35.80;;;;;;5073085;28;20033;-68
2021/06/14 12:52:49;;;;;;;3.72;1.85;;;29.80;35.90;;;;;;5072438;28;20044;-67
2021/06/14 12:55:23;;;;;;;5.25;1.80;;;29.80;34.50;;;;;;5073116;28;20099;-67
2021/06/14 12:57:50;;;;;;;2.92;1.92;;;29.80;35.40;;;;;;5068642;28;20386;-67
2021/06/14 13:00:30;;;;;;;3.88;1.73;;;29.80;34.30;;;;;;5072035;28;20044;-68
2021/06/14 13:02:58;;;;;;;4.43;1.80;;;29.80;36.10;;;;;;5072589;28;20028;-68